sensor_id;sensor_type;location;lat;lon;timestamp;P1;durP1;ratioP1;P2;durP2;ratioP2
63114;SDS011;49208;50.874;6.466;2024-02-04T07:01:23;3.67;;;1.50;;
63114;SDS011;49208;50.874;6.466;2024-02-04T07:03:49;4.35;;;1.30;;
63114;SDS011;49208;50.874;6.466;2024-02-04T07:06:15;2.47;;;0.95;;
63114;SDS011;49208;50.874;6.466;2024-02-04T07:08:40;2.72;;;1.15;;
63114;SDS011;49208;50.874;6.466;2024-02-04T07:11:05;3.17;;;1.30;;
63114;SDS011;49208;50.874;6.466;2024-02-04T07:13:31;3.20;;;1.33;;
63114;SDS011;49208;50.874;6.466;2024-02-04T07:15:57;3.05;;;1.30;;
63114;SDS011;49208;50.874;6.466;2024-02-04T07:18:23;2.33;;;1.05;;
63114;SDS011;49208;50.874;6.466;2024-02-04T07:20:48;3.03;;;1.20;;
63114;SDS011;49208;50.874;6.466;2024-02-04T07:23:14;3.40;;;1.27;;
63114;SDS011;49208;50.874;6.466;2024-02-04T07:25:39;2.38;;;1.05;;
63114;SDS011;49208;50.874;6.466;2024-02-04T07:28:04;4.57;;;1.27;;
63114;SDS011;49208;50.874;6.466;2024-02-04T07:30:30;3.05;;;1.27;;
63114;SDS011;49208;50.874;6.466;2024-02-04T07:32:55;3.63;;;1.52;;
63114;SDS011;49208;50.874;6.466;2024-02-04T07:35:20;3.33;;;1.48;;
63114;SDS011;49208;50.874;6.466;2024-02-04T07:37:46;3.53;;;1.70;;
63114;SDS011;49208;50.874;6.466;2024-02-04T07:40:12;2.67;;;1.15;;
63114;SDS011;49208;50.874;6.466;2024-02-04T07:42:37;2.88;;;1.20;;
63114;SDS011;49208;50.874;6.466;2024-02-04T07:45:02;3.63;;;1.35;;
63114;SDS011;49208;50.874;6.466;2024-02-04T07:47:33;1.58;;;0.73;;
63114;SDS011;49208;50.874;6.466;2024-02-04T07:49:59;3.42;;;1.13;;
63114;SDS011;49208;50.874;6.466;2024-02-04T07:52:24;3.47;;;1.58;;
63114;SDS011;49208;50.874;6.466;2024-02-04T07:54:50;4.80;;;1.75;;
63114;SDS011;49208;50.874;6.466;2024-02-04T07:57:15;4.85;;;1.10;;
63114;SDS011;49208;50.874;6.466;2024-02-04T07:59:40;5.05;;;1.65;;
63114;SDS011;49208;50.874;6.466;2024-02-04T08:02:06;2.53;;;1.17;;
63114;SDS011;49208;50.874;6.466;2024-02-04T08:04:32;4.45;;;1.58;;
63114;SDS011;49208;50.874;6.466;2024-02-04T08:06:57;3.50;;;1.63;;
63114;SDS011;49208;50.874;6.466;2024-02-04T08:09:23;3.47;;;1.45;;
63114;SDS011;49208;50.874;6.466;2024-02-04T08:11:48;3.15;;;1.27;;
63114;SDS011;49208;50.874;6.466;2024-02-04T08:14:14;4.32;;;1.73;;
63114;SDS011;49208;50.874;6.466;2024-02-04T08:16:39;4.07;;;1.70;;
63114;SDS011;49208;50.874;6.466;2024-02-04T08:19:05;3.22;;;1.40;;
63114;SDS011;49208;50.874;6.466;2024-02-04T08:21:31;6.00;;;1.60;;
63114;SDS011;49208;50.874;6.466;2024-02-04T08:23:57;3.00;;;1.20;;
63114;SDS011;49208;50.874;6.466;2024-02-04T08:26:23;3.28;;;1.25;;
63114;SDS011;49208;50.874;6.466;2024-02-04T08:28:48;4.07;;;1.60;;
63114;SDS011;49208;50.874;6.466;2024-02-04T08:31:14;3.97;;;1.20;;
63114;SDS011;49208;50.874;6.466;2024-02-04T08:33:39;2.85;;;1.20;;
63114;SDS011;49208;50.874;6.466;2024-02-04T08:36:05;3.30;;;1.00;;
63114;SDS011;49208;50.874;6.466;2024-02-04T08:38:31;2.83;;;1.23;;
63114;SDS011;49208;50.874;6.466;2024-02-04T08:40:57;1.80;;;0.80;;
63114;SDS011;49208;50.874;6.466;2024-02-04T08:43:22;2.60;;;1.02;;
63114;SDS011;49208;50.874;6.466;2024-02-04T08:45:47;2.65;;;0.90;;
63114;SDS011;49208;50.874;6.466;2024-02-04T08:48:13;1.95;;;0.93;;
63114;SDS011;49208;50.874;6.466;2024-02-04T08:50:38;2.20;;;0.85;;
63114;SDS011;49208;50.874;6.466;2024-02-04T08:53:04;1.77;;;0.95;;
63114;SDS011;49208;50.874;6.466;2024-02-04T08:55:29;3.17;;;1.00;;
63114;SDS011;49208;50.874;6.466;2024-02-04T08:57:54;1.58;;;0.68;;
63114;SDS011;49208;50.874;6.466;2024-02-04T09:00:20;2.17;;;0.93;;
63114;SDS011;49208;50.874;6.466;2024-02-04T09:02:46;2.33;;;1.00;;
63114;SDS011;49208;50.874;6.466;2024-02-04T09:05:12;5.50;;;1.42;;
63114;SDS011;49208;50.874;6.466;2024-02-04T09:07:37;3.03;;;1.00;;
63114;SDS011;49208;50.874;6.466;2024-02-04T09:10:04;2.60;;;1.10;;
63114;SDS011;49208;50.874;6.466;2024-02-04T09:12:29;2.17;;;0.90;;
63114;SDS011;49208;50.874;6.466;2024-02-04T09:14:55;2.42;;;0.90;;
63114;SDS011;49208;50.874;6.466;2024-02-04T09:17:20;1.67;;;0.73;;
63114;SDS011;49208;50.874;6.466;2024-02-04T09:19:46;2.35;;;1.10;;
63114;SDS011;49208;50.874;6.466;2024-02-04T09:22:11;3.33;;;1.35;;
63114;SDS011;49208;50.874;6.466;2024-02-04T09:24:37;3.05;;;1.20;;
63114;SDS011;49208;50.874;6.466;2024-02-04T09:27:02;2.92;;;1.60;;
63114;SDS011;49208;50.874;6.466;2024-02-04T09:29:27;3.47;;;1.75;;
63114;SDS011;49208;50.874;6.466;2024-02-04T09:31:53;2.70;;;1.20;;
63114;SDS011;49208;50.874;6.466;2024-02-04T09:34:19;3.05;;;1.25;;
63114;SDS011;49208;50.874;6.466;2024-02-04T09:36:44;2.60;;;1.40;;
63114;SDS011;49208;50.874;6.466;2024-02-04T09:39:10;3.05;;;1.40;;
63114;SDS011;49208;50.874;6.466;2024-02-04T09:41:35;2.83;;;1.02;;
63114;SDS011;49208;50.874;6.466;2024-02-04T09:44:01;2.83;;;1.00;;
63114;SDS011;49208;50.874;6.466;2024-02-04T09:46:28;3.13;;;1.00;;
63114;SDS011;49208;50.874;6.466;2024-02-04T09:48:54;3.67;;;1.35;;
63114;SDS011;49208;50.874;6.466;2024-02-04T09:51:20;4.28;;;1.45;;
63114;SDS011;49208;50.874;6.466;2024-02-04T09:53:46;3.20;;;1.17;;
63114;SDS011;49208;50.874;6.466;2024-02-04T09:56:17;3.80;;;1.15;;
63114;SDS011;49208;50.874;6.466;2024-02-04T09:58:43;2.73;;;1.50;;
63114;SDS011;49208;50.874;6.466;2024-02-04T10:01:10;3.53;;;1.13;;
63114;SDS011;49208;50.874;6.466;2024-02-04T10:03:36;2.20;;;1.00;;
63114;SDS011;49208;50.874;6.466;2024-02-04T10:06:02;2.28;;;1.05;;
63114;SDS011;49208;50.874;6.466;2024-02-04T10:08:27;3.40;;;1.40;;
63114;SDS011;49208;50.874;6.466;2024-02-04T10:10:53;2.85;;;1.25;;
63114;SDS011;49208;50.874;6.466;2024-02-04T10:13:19;3.20;;;1.40;;
63114;SDS011;49208;50.874;6.466;2024-02-04T10:15:46;4.22;;;1.50;;
63114;SDS011;49208;50.874;6.466;2024-02-04T10:18:12;2.78;;;1.20;;
63114;SDS011;49208;50.874;6.466;2024-02-04T10:20:38;1.92;;;0.93;;
63114;SDS011;49208;50.874;6.466;2024-02-04T10:23:03;3.28;;;1.00;;
63114;SDS011;49208;50.874;6.466;2024-02-04T10:25:29;2.38;;;1.02;;
63114;SDS011;49208;50.874;6.466;2024-02-04T10:27:54;1.85;;;0.80;;
63114;SDS011;49208;50.874;6.466;2024-02-04T10:30:20;1.20;;;0.70;;
63114;SDS011;49208;50.874;6.466;2024-02-04T10:32:46;2.10;;;0.88;;
63114;SDS011;49208;50.874;6.466;2024-02-04T10:35:15;1.90;;;0.80;;
63114;SDS011;49208;50.874;6.466;2024-02-04T10:37:44;1.35;;;0.80;;
63114;SDS011;49208;50.874;6.466;2024-02-04T10:40:10;1.73;;;0.77;;
63114;SDS011;49208;50.874;6.466;2024-02-04T10:42:35;2.35;;;0.93;;
63114;SDS011;49208;50.874;6.466;2024-02-04T10:45:03;2.80;;;0.88;;
63114;SDS011;49208;50.874;6.466;2024-02-04T10:47:33;2.28;;;0.90;;
63114;SDS011;49208;50.874;6.466;2024-02-04T10:50:05;2.13;;;0.73;;
63114;SDS011;49208;50.874;6.466;2024-02-04T10:52:37;1.85;;;0.73;;
63114;SDS011;49208;50.874;6.466;2024-02-04T10:55:07;3.03;;;0.95;;
63114;SDS011;49208;50.874;6.466;2024-02-04T10:57:37;1.95;;;0.80;;
63114;SDS011;49208;50.874;6.466;2024-02-04T11:00:03;2.60;;;0.90;;
63114;SDS011;49208;50.874;6.466;2024-02-04T11:02:33;1.75;;;0.80;;
63114;SDS011;49208;50.874;6.466;2024-02-04T11:04:59;2.30;;;1.15;;
63114;SDS011;49208;50.874;6.466;2024-02-04T11:07:26;7.38;;;1.13;;
63114;SDS011;49208;50.874;6.466;2024-02-04T11:09:57;3.60;;;1.05;;
63114;SDS011;49208;50.874;6.466;2024-02-04T11:12:22;3.20;;;1.17;;
63114;SDS011;49208;50.874;6.466;2024-02-04T11:14:51;3.78;;;1.17;;
63114;SDS011;49208;50.874;6.466;2024-02-04T11:25:53;6.20;;;1.70;;
63114;SDS011;49208;50.874;6.466;2024-02-04T11:28:21;5.30;;;1.77;;
63114;SDS011;49208;50.874;6.466;2024-02-04T11:30:48;4.85;;;1.92;;
63114;SDS011;49208;50.874;6.466;2024-02-04T11:35:43;6.45;;;2.00;;
63114;SDS011;49208;50.874;6.466;2024-02-04T11:38:09;4.35;;;1.67;;
63114;SDS011;49208;50.874;6.466;2024-02-04T11:40:36;3.80;;;1.90;;
63114;SDS011;49208;50.874;6.466;2024-02-04T11:45:38;3.75;;;1.80;;
63114;SDS011;49208;50.874;6.466;2024-02-04T11:48:06;3.00;;;1.30;;
63114;SDS011;49208;50.874;6.466;2024-02-04T11:50:32;4.55;;;1.60;;
63114;SDS011;49208;50.874;6.466;2024-02-04T11:53:17;3.83;;;1.42;;
63114;SDS011;49208;50.874;6.466;2024-02-04T11:55:43;4.28;;;1.25;;
63114;SDS011;49208;50.874;6.466;2024-02-04T11:58:10;4.60;;;2.13;;
63114;SDS011;49208;50.874;6.466;2024-02-04T12:00:36;4.32;;;1.70;;
63114;SDS011;49208;50.874;6.466;2024-02-04T12:03:02;4.22;;;1.52;;
63114;SDS011;49208;50.874;6.466;2024-02-04T12:05:30;3.45;;;1.23;;
63114;SDS011;49208;50.874;6.466;2024-02-04T12:07:59;4.03;;;1.50;;
63114;SDS011;49208;50.874;6.466;2024-02-04T12:10:26;4.00;;;1.48;;
63114;SDS011;49208;50.874;6.466;2024-02-04T12:12:52;3.25;;;1.58;;
63114;SDS011;49208;50.874;6.466;2024-02-04T12:15:17;3.28;;;1.50;;
63114;SDS011;49208;50.874;6.466;2024-02-04T12:17:43;2.38;;;1.25;;
63114;SDS011;49208;50.874;6.466;2024-02-04T12:20:09;2.33;;;0.90;;
63114;SDS011;49208;50.874;6.466;2024-02-04T12:22:35;4.10;;;1.60;;
63114;SDS011;49208;50.874;6.466;2024-02-04T12:25:02;2.53;;;1.23;;
63114;SDS011;49208;50.874;6.466;2024-02-04T12:27:28;4.47;;;1.53;;
63114;SDS011;49208;50.874;6.466;2024-02-04T12:29:53;5.55;;;1.50;;
63114;SDS011;49208;50.874;6.466;2024-02-04T12:32:19;2.65;;;1.17;;
63114;SDS011;49208;50.874;6.466;2024-02-04T12:34:48;2.30;;;1.20;;
63114;SDS011;49208;50.874;6.466;2024-02-04T12:37:13;2.78;;;1.40;;
63114;SDS011;49208;50.874;6.466;2024-02-04T12:39:39;3.35;;;1.40;;
63114;SDS011;49208;50.874;6.466;2024-02-04T12:42:04;2.70;;;1.60;;
63114;SDS011;49208;50.874;6.466;2024-02-04T12:44:30;3.45;;;1.35;;
63114;SDS011;49208;50.874;6.466;2024-02-04T12:46:56;4.07;;;1.73;;
63114;SDS011;49208;50.874;6.466;2024-02-04T12:49:22;4.68;;;1.65;;
63114;SDS011;49208;50.874;6.466;2024-02-04T12:51:47;4.07;;;1.90;;
63114;SDS011;49208;50.874;6.466;2024-02-04T12:54:13;3.25;;;1.55;;
63114;SDS011;49208;50.874;6.466;2024-02-04T12:59:05;3.88;;;1.90;;
63114;SDS011;49208;50.874;6.466;2024-02-04T13:01:30;3.75;;;1.83;;
63114;SDS011;49208;50.874;6.466;2024-02-04T13:03:55;3.63;;;1.58;;
63114;SDS011;49208;50.874;6.466;2024-02-04T13:06:21;4.30;;;1.83;;
63114;SDS011;49208;50.874;6.466;2024-02-04T13:08:47;2.85;;;1.30;;
63114;SDS011;49208;50.874;6.466;2024-02-04T13:11:12;3.50;;;1.60;;
63114;SDS011;49208;50.874;6.466;2024-02-04T13:13:45;3.08;;;1.50;;
63114;SDS011;49208;50.874;6.466;2024-02-04T13:16:10;3.00;;;1.23;;
63114;SDS011;49208;50.874;6.466;2024-02-04T13:18:36;2.92;;;1.10;;
63114;SDS011;49208;50.874;6.466;2024-02-04T13:21:01;3.92;;;1.30;;
63114;SDS011;49208;50.874;6.466;2024-02-04T13:23:27;2.80;;;1.20;;
63114;SDS011;49208;50.874;6.466;2024-02-04T13:25:53;2.42;;;1.08;;
63114;SDS011;49208;50.874;6.466;2024-02-04T13:28:18;4.20;;;1.25;;
63114;SDS011;49208;50.874;6.466;2024-02-04T13:30:44;3.05;;;1.20;;
63114;SDS011;49208;50.874;6.466;2024-02-04T13:33:09;2.90;;;1.42;;
63114;SDS011;49208;50.874;6.466;2024-02-04T13:35:35;4.72;;;1.38;;
63114;SDS011;49208;50.874;6.466;2024-02-04T13:38:00;5.45;;;1.50;;
63114;SDS011;49208;50.874;6.466;2024-02-04T13:40:27;3.70;;;1.73;;
63114;SDS011;49208;50.874;6.466;2024-02-04T13:42:52;3.58;;;1.30;;
63114;SDS011;49208;50.874;6.466;2024-02-04T13:45:18;3.10;;;1.30;;
63114;SDS011;49208;50.874;6.466;2024-02-04T13:47:44;4.18;;;1.27;;
63114;SDS011;49208;50.874;6.466;2024-02-04T13:50:10;2.13;;;0.90;;
63114;SDS011;49208;50.874;6.466;2024-02-04T13:52:36;4.93;;;0.98;;
63114;SDS011;49208;50.874;6.466;2024-02-04T13:55:01;3.95;;;1.42;;
63114;SDS011;49208;50.874;6.466;2024-02-04T13:57:30;2.50;;;1.10;;
63114;SDS011;49208;50.874;6.466;2024-02-04T13:59:55;3.58;;;1.20;;
63114;SDS011;49208;50.874;6.466;2024-02-04T14:02:21;1.63;;;0.80;;
63114;SDS011;49208;50.874;6.466;2024-02-04T14:07:13;1.55;;;0.80;;
63114;SDS011;49208;50.874;6.466;2024-02-04T14:09:39;1.73;;;0.80;;
63114;SDS011;49208;50.874;6.466;2024-02-04T14:12:04;3.55;;;0.95;;
63114;SDS011;49208;50.874;6.466;2024-02-04T14:14:30;2.38;;;1.13;;
63114;SDS011;49208;50.874;6.466;2024-02-04T14:16:56;3.03;;;1.30;;
63114;SDS011;49208;50.874;6.466;2024-02-04T14:19:22;3.58;;;1.42;;
63114;SDS011;49208;50.874;6.466;2024-02-04T14:21:47;2.05;;;1.00;;
63114;SDS011;49208;50.874;6.466;2024-02-04T14:24:13;1.95;;;1.05;;
63114;SDS011;49208;50.874;6.466;2024-02-04T14:26:38;2.70;;;1.08;;
63114;SDS011;49208;50.874;6.466;2024-02-04T14:29:05;2.35;;;1.13;;
63114;SDS011;49208;50.874;6.466;2024-02-04T14:31:31;2.58;;;1.13;;
63114;SDS011;49208;50.874;6.466;2024-02-04T14:33:56;2.25;;;1.13;;
63114;SDS011;49208;50.874;6.466;2024-02-04T14:36:21;2.35;;;1.20;;
63114;SDS011;49208;50.874;6.466;2024-02-04T14:38:47;2.38;;;1.10;;
63114;SDS011;49208;50.874;6.466;2024-02-04T14:41:12;2.90;;;1.30;;
63114;SDS011;49208;50.874;6.466;2024-02-04T14:43:38;2.88;;;1.20;;
63114;SDS011;49208;50.874;6.466;2024-02-04T14:46:03;2.70;;;1.33;;
63114;SDS011;49208;50.874;6.466;2024-02-04T14:48:29;3.20;;;1.58;;
63114;SDS011;49208;50.874;6.466;2024-02-04T14:50:55;2.72;;;1.30;;
63114;SDS011;49208;50.874;6.466;2024-02-04T14:55:47;3.13;;;1.33;;
63114;SDS011;49208;50.874;6.466;2024-02-04T14:58:13;2.88;;;1.40;;
63114;SDS011;49208;50.874;6.466;2024-02-04T15:00:38;2.70;;;1.27;;
63114;SDS011;49208;50.874;6.466;2024-02-04T15:03:03;2.92;;;1.38;;
63114;SDS011;49208;50.874;6.466;2024-02-04T15:05:30;4.25;;;1.35;;
63114;SDS011;49208;50.874;6.466;2024-02-04T15:07:55;3.33;;;1.40;;
63114;SDS011;49208;50.874;6.466;2024-02-04T15:10:21;3.10;;;1.48;;
63114;SDS011;49208;50.874;6.466;2024-02-04T15:12:46;3.00;;;1.40;;
63114;SDS011;49208;50.874;6.466;2024-02-04T15:15:12;2.28;;;1.25;;
63114;SDS011;49208;50.874;6.466;2024-02-04T15:17:38;2.35;;;1.40;;
63114;SDS011;49208;50.874;6.466;2024-02-04T15:20:05;2.58;;;1.27;;
63114;SDS011;49208;50.874;6.466;2024-02-04T15:22:31;3.15;;;1.02;;
63114;SDS011;49208;50.874;6.466;2024-02-04T15:24:57;1.52;;;0.93;;
63114;SDS011;49208;50.874;6.466;2024-02-04T15:27:23;4.55;;;0.93;;
63114;SDS011;49208;50.874;6.466;2024-02-04T15:29:52;2.03;;;1.00;;
63114;SDS011;49208;50.874;6.466;2024-02-04T15:32:20;2.05;;;1.00;;
63114;SDS011;49208;50.874;6.466;2024-02-04T15:34:46;3.08;;;1.20;;
63114;SDS011;49208;50.874;6.466;2024-02-04T15:37:12;2.70;;;0.98;;
63114;SDS011;49208;50.874;6.466;2024-02-04T15:39:38;1.75;;;0.90;;
63114;SDS011;49208;50.874;6.466;2024-02-04T15:42:03;2.25;;;1.00;;
63114;SDS011;49208;50.874;6.466;2024-02-04T15:44:30;2.15;;;0.77;;
63114;SDS011;49208;50.874;6.466;2024-02-04T15:46:56;2.80;;;1.00;;
63114;SDS011;49208;50.874;6.466;2024-02-04T15:49:22;1.75;;;0.70;;
63114;SDS011;49208;50.874;6.466;2024-02-04T15:51:49;1.45;;;0.77;;
63114;SDS011;49208;50.874;6.466;2024-02-04T15:54:15;2.60;;;0.65;;
63114;SDS011;49208;50.874;6.466;2024-02-04T15:56:43;2.33;;;0.90;;
63114;SDS011;49208;50.874;6.466;2024-02-04T15:59:14;2.30;;;1.08;;
63114;SDS011;49208;50.874;6.466;2024-02-04T16:01:44;2.35;;;1.00;;
63114;SDS011;49208;50.874;6.466;2024-02-04T16:04:10;2.50;;;0.93;;
63114;SDS011;49208;50.874;6.466;2024-02-04T16:06:36;2.28;;;1.15;;
63114;SDS011;49208;50.874;6.466;2024-02-04T16:09:03;2.05;;;0.88;;
63114;SDS011;49208;50.874;6.466;2024-02-04T16:11:36;2.28;;;0.85;;
63114;SDS011;49208;50.874;6.466;2024-02-04T16:14:18;2.97;;;1.00;;
63114;SDS011;49208;50.874;6.466;2024-02-04T16:16:45;3.30;;;1.10;;
63114;SDS011;49208;50.874;6.466;2024-02-04T16:19:14;1.48;;;0.70;;
63114;SDS011;49208;50.874;6.466;2024-02-04T16:21:41;1.75;;;0.73;;
63114;SDS011;49208;50.874;6.466;2024-02-04T16:26:33;2.10;;;0.75;;
63114;SDS011;49208;50.874;6.466;2024-02-04T16:28:59;2.10;;;0.60;;
63114;SDS011;49208;50.874;6.466;2024-02-04T16:31:24;2.00;;;0.80;;
63114;SDS011;49208;50.874;6.466;2024-02-04T16:33:49;3.45;;;0.88;;
63114;SDS011;49208;50.874;6.466;2024-02-04T16:36:15;2.58;;;0.73;;
63114;SDS011;49208;50.874;6.466;2024-02-04T16:38:41;1.90;;;0.80;;
63114;SDS011;49208;50.874;6.466;2024-02-04T16:41:09;2.42;;;1.00;;
63114;SDS011;49208;50.874;6.466;2024-02-04T16:43:35;2.65;;;0.90;;
63114;SDS011;49208;50.874;6.466;2024-02-04T16:46:00;1.92;;;0.90;;
63114;SDS011;49208;50.874;6.466;2024-02-04T16:48:26;3.60;;;0.95;;
63114;SDS011;49208;50.874;6.466;2024-02-04T16:50:51;1.80;;;0.98;;
63114;SDS011;49208;50.874;6.466;2024-02-04T16:53:16;3.88;;;1.00;;
63114;SDS011;49208;50.874;6.466;2024-02-04T16:55:44;1.63;;;0.90;;
63114;SDS011;49208;50.874;6.466;2024-02-04T16:58:10;3.15;;;1.50;;
63114;SDS011;49208;50.874;6.466;2024-02-04T17:00:35;3.78;;;1.48;;
63114;SDS011;49208;50.874;6.466;2024-02-04T17:03:01;2.95;;;1.27;;
63114;SDS011;49208;50.874;6.466;2024-02-04T17:07:54;3.13;;;1.52;;
63114;SDS011;49208;50.874;6.466;2024-02-04T17:10:19;4.60;;;1.40;;
63114;SDS011;49208;50.874;6.466;2024-02-04T17:12:45;3.03;;;1.50;;
63114;SDS011;49208;50.874;6.466;2024-02-04T17:15:11;2.95;;;1.45;;
63114;SDS011;49208;50.874;6.466;2024-02-04T17:17:38;3.60;;;1.63;;
63114;SDS011;49208;50.874;6.466;2024-02-04T17:22:43;4.15;;;1.65;;
63114;SDS011;49208;50.874;6.466;2024-02-04T17:25:13;4.20;;;1.45;;
63114;SDS011;49208;50.874;6.466;2024-02-04T17:27:42;2.30;;;1.05;;
63114;SDS011;49208;50.874;6.466;2024-02-04T17:30:08;2.50;;;1.25;;
63114;SDS011;49208;50.874;6.466;2024-02-04T17:32:39;2.97;;;1.38;;
63114;SDS011;49208;50.874;6.466;2024-02-04T17:35:06;3.42;;;1.30;;
63114;SDS011;49208;50.874;6.466;2024-02-04T17:37:33;2.42;;;1.30;;
63114;SDS011;49208;50.874;6.466;2024-02-04T17:39:59;2.72;;;1.25;;
63114;SDS011;49208;50.874;6.466;2024-02-04T17:42:25;2.70;;;1.58;;
63114;SDS011;49208;50.874;6.466;2024-02-04T17:44:56;3.90;;;1.77;;
63114;SDS011;49208;50.874;6.466;2024-02-04T17:47:22;3.80;;;2.05;;
63114;SDS011;49208;50.874;6.466;2024-02-04T17:49:50;5.07;;;2.63;;
63114;SDS011;49208;50.874;6.466;2024-02-04T17:52:22;4.82;;;2.20;;
63114;SDS011;49208;50.874;6.466;2024-02-04T17:54:50;4.60;;;2.03;;
63114;SDS011;49208;50.874;6.466;2024-02-04T17:57:16;3.83;;;2.17;;
63114;SDS011;49208;50.874;6.466;2024-02-04T17:59:42;5.88;;;2.47;;
63114;SDS011;49208;50.874;6.466;2024-02-04T18:02:08;4.65;;;2.38;;
63114;SDS011;49208;50.874;6.466;2024-02-04T18:04:34;6.38;;;2.60;;
63114;SDS011;49208;50.874;6.466;2024-02-04T18:06:59;5.00;;;2.35;;
63114;SDS011;49208;50.874;6.466;2024-02-04T18:09:25;4.07;;;2.25;;
63114;SDS011;49208;50.874;6.466;2024-02-04T18:11:53;7.13;;;2.50;;
63114;SDS011;49208;50.874;6.466;2024-02-04T18:14:19;12.10;;;2.90;;
63114;SDS011;49208;50.874;6.466;2024-02-04T18:16:45;5.43;;;2.50;;
63114;SDS011;49208;50.874;6.466;2024-02-04T18:19:10;5.40;;;2.58;;
63114;SDS011;49208;50.874;6.466;2024-02-04T18:21:36;4.78;;;2.22;;
63114;SDS011;49208;50.874;6.466;2024-02-04T18:24:01;4.00;;;2.15;;
63114;SDS011;49208;50.874;6.466;2024-02-04T18:28:55;4.32;;;2.33;;
63114;SDS011;49208;50.874;6.466;2024-02-04T18:31:22;5.25;;;2.60;;
63114;SDS011;49208;50.874;6.466;2024-02-04T18:33:48;4.60;;;2.50;;
63114;SDS011;49208;50.874;6.466;2024-02-04T18:36:16;5.68;;;2.60;;
63114;SDS011;49208;50.874;6.466;2024-02-04T18:38:47;5.60;;;3.15;;
63114;SDS011;49208;50.874;6.466;2024-02-04T18:41:14;5.50;;;2.80;;
63114;SDS011;49208;50.874;6.466;2024-02-04T18:43:40;5.90;;;2.92;;
63114;SDS011;49208;50.874;6.466;2024-02-04T18:46:06;4.22;;;2.53;;
63114;SDS011;49208;50.874;6.466;2024-02-04T18:48:33;3.97;;;2.22;;
63114;SDS011;49208;50.874;6.466;2024-02-04T18:50:59;4.30;;;2.03;;
63114;SDS011;49208;50.874;6.466;2024-02-04T18:53:26;5.72;;;1.90;;
63114;SDS011;49208;50.874;6.466;2024-02-04T18:55:52;4.10;;;1.98;;
63114;SDS011;49208;50.874;6.466;2024-02-04T18:58:18;4.75;;;1.77;;
63114;SDS011;49208;50.874;6.466;2024-02-04T19:00:43;4.30;;;1.50;;
63114;SDS011;49208;50.874;6.466;2024-02-04T19:03:09;3.33;;;1.75;;
63114;SDS011;49208;50.874;6.466;2024-02-04T19:05:35;3.13;;;1.55;;
63114;SDS011;49208;50.874;6.466;2024-02-04T19:08:02;3.13;;;1.50;;
63114;SDS011;49208;50.874;6.466;2024-02-04T19:10:27;3.40;;;1.38;;
63114;SDS011;49208;50.874;6.466;2024-02-04T19:12:53;4.90;;;1.83;;
63114;SDS011;49208;50.874;6.466;2024-02-04T19:15:18;4.35;;;2.00;;
63114;SDS011;49208;50.874;6.466;2024-02-04T19:17:43;2.72;;;1.35;;
63114;SDS011;49208;50.874;6.466;2024-02-04T19:20:10;3.08;;;1.23;;
63114;SDS011;49208;50.874;6.466;2024-02-04T19:22:45;3.55;;;1.50;;
63114;SDS011;49208;50.874;6.466;2024-02-04T19:25:14;3.95;;;1.30;;
63114;SDS011;49208;50.874;6.466;2024-02-04T19:27:44;4.15;;;1.73;;
63114;SDS011;49208;50.874;6.466;2024-02-04T19:30:20;3.67;;;1.38;;
63114;SDS011;49208;50.874;6.466;2024-02-04T19:32:47;5.00;;;2.25;;
63114;SDS011;49208;50.874;6.466;2024-02-04T19:35:24;4.18;;;2.00;;
63114;SDS011;49208;50.874;6.466;2024-02-04T19:37:51;3.83;;;1.97;;
63114;SDS011;49208;50.874;6.466;2024-02-04T19:40:17;3.72;;;1.80;;
63114;SDS011;49208;50.874;6.466;2024-02-04T19:42:43;5.07;;;1.58;;
63114;SDS011;49208;50.874;6.466;2024-02-04T19:45:10;3.10;;;1.40;;
63114;SDS011;49208;50.874;6.466;2024-02-04T19:47:36;3.08;;;1.45;;
63114;SDS011;49208;50.874;6.466;2024-02-04T19:50:03;2.90;;;1.55;;
63114;SDS011;49208;50.874;6.466;2024-02-04T19:52:30;4.32;;;1.98;;
63114;SDS011;49208;50.874;6.466;2024-02-04T19:54:56;3.13;;;1.58;;
63114;SDS011;49208;50.874;6.466;2024-02-04T19:57:21;3.35;;;1.50;;
63114;SDS011;49208;50.874;6.466;2024-02-04T19:59:47;4.30;;;2.13;;
63114;SDS011;49208;50.874;6.466;2024-02-04T20:02:12;4.13;;;1.70;;
63114;SDS011;49208;50.874;6.466;2024-02-04T20:04:38;4.03;;;1.58;;
63114;SDS011;49208;50.874;6.466;2024-02-04T20:07:04;5.40;;;2.20;;
63114;SDS011;49208;50.874;6.466;2024-02-04T20:09:31;3.72;;;1.95;;
63114;SDS011;49208;50.874;6.466;2024-02-04T20:11:56;3.55;;;1.80;;
63114;SDS011;49208;50.874;6.466;2024-02-04T20:14:22;4.05;;;2.00;;
63114;SDS011;49208;50.874;6.466;2024-02-04T20:16:48;4.85;;;2.05;;
63114;SDS011;49208;50.874;6.466;2024-02-04T20:19:13;4.05;;;2.13;;
63114;SDS011;49208;50.874;6.466;2024-02-04T20:21:41;5.82;;;1.88;;
63114;SDS011;49208;50.874;6.466;2024-02-04T20:24:07;3.95;;;1.50;;
63114;SDS011;49208;50.874;6.466;2024-02-04T20:26:36;3.25;;;1.55;;
63114;SDS011;49208;50.874;6.466;2024-02-04T20:29:02;4.35;;;2.03;;
63114;SDS011;49208;50.874;6.466;2024-02-04T20:31:28;3.50;;;1.67;;
63114;SDS011;49208;50.874;6.466;2024-02-04T20:33:54;2.75;;;1.25;;
63114;SDS011;49208;50.874;6.466;2024-02-04T20:36:19;4.13;;;1.30;;
63114;SDS011;49208;50.874;6.466;2024-02-04T20:38:44;3.95;;;1.65;;
63114;SDS011;49208;50.874;6.466;2024-02-04T20:41:10;4.47;;;1.20;;
63114;SDS011;49208;50.874;6.466;2024-02-04T20:43:36;3.20;;;1.20;;
63114;SDS011;49208;50.874;6.466;2024-02-04T20:46:03;3.97;;;1.42;;
63114;SDS011;49208;50.874;6.466;2024-02-04T20:48:31;2.22;;;0.90;;
63114;SDS011;49208;50.874;6.466;2024-02-04T20:50:57;2.40;;;1.13;;
63114;SDS011;49208;50.874;6.466;2024-02-04T20:53:22;1.90;;;0.88;;
63114;SDS011;49208;50.874;6.466;2024-02-04T20:55:47;4.60;;;1.30;;
63114;SDS011;49208;50.874;6.466;2024-02-04T20:58:13;2.83;;;1.17;;
63114;SDS011;49208;50.874;6.466;2024-02-04T21:00:40;3.03;;;1.00;;
63114;SDS011;49208;50.874;6.466;2024-02-04T21:03:05;1.73;;;0.82;;
63114;SDS011;49208;50.874;6.466;2024-02-04T21:05:31;2.90;;;1.30;;
63114;SDS011;49208;50.874;6.466;2024-02-04T21:07:58;4.35;;;1.10;;
63114;SDS011;49208;50.874;6.466;2024-02-04T21:10:24;2.38;;;0.90;;
63114;SDS011;49208;50.874;6.466;2024-02-04T21:12:49;3.83;;;0.93;;
63114;SDS011;49208;50.874;6.466;2024-02-04T21:15:18;3.30;;;1.70;;
63114;SDS011;49208;50.874;6.466;2024-02-04T21:17:44;2.25;;;0.98;;
63114;SDS011;49208;50.874;6.466;2024-02-04T21:20:10;4.13;;;1.10;;
63114;SDS011;49208;50.874;6.466;2024-02-04T21:22:35;2.08;;;1.08;;
63114;SDS011;49208;50.874;6.466;2024-02-04T21:25:02;4.00;;;1.20;;
63114;SDS011;49208;50.874;6.466;2024-02-04T21:27:28;2.22;;;0.70;;
63114;SDS011;49208;50.874;6.466;2024-02-04T21:29:53;4.63;;;1.35;;
63114;SDS011;49208;50.874;6.466;2024-02-04T21:32:18;2.15;;;0.90;;
63114;SDS011;49208;50.874;6.466;2024-02-04T21:34:44;2.35;;;1.10;;
63114;SDS011;49208;50.874;6.466;2024-02-04T21:37:09;3.22;;;1.10;;
63114;SDS011;49208;50.874;6.466;2024-02-04T21:39:35;1.85;;;0.93;;
63114;SDS011;49208;50.874;6.466;2024-02-04T21:42:01;1.55;;;0.73;;
63114;SDS011;49208;50.874;6.466;2024-02-04T21:44:26;1.92;;;0.80;;
63114;SDS011;49208;50.874;6.466;2024-02-04T21:46:52;2.45;;;1.08;;
63114;SDS011;49208;50.874;6.466;2024-02-04T21:49:17;1.75;;;0.80;;
63114;SDS011;49208;50.874;6.466;2024-02-04T21:51:42;3.83;;;1.17;;
63114;SDS011;49208;50.874;6.466;2024-02-04T21:54:08;5.93;;;1.25;;
63114;SDS011;49208;50.874;6.466;2024-02-04T21:56:34;3.53;;;1.40;;
63114;SDS011;49208;50.874;6.466;2024-02-04T21:58:59;2.35;;;1.13;;
63114;SDS011;49208;50.874;6.466;2024-02-04T22:01:25;3.90;;;1.60;;
63114;SDS011;49208;50.874;6.466;2024-02-04T22:03:51;4.68;;;1.30;;
63114;SDS011;49208;50.874;6.466;2024-02-04T22:06:16;4.85;;;1.70;;
63114;SDS011;49208;50.874;6.466;2024-02-04T22:08:42;4.60;;;1.42;;
63114;SDS011;49208;50.874;6.466;2024-02-04T22:11:08;3.28;;;1.52;;
63114;SDS011;49208;50.874;6.466;2024-02-04T22:13:33;4.22;;;2.25;;